createdAt,value
2023-07-11T00:01:27.588Z,2.88
2023-07-11T00:03:55.152Z,2.85
2023-07-11T00:06:23.154Z,2.92
2023-07-11T00:08:50.634Z,2.92
2023-07-11T00:11:19.722Z,3.00
2023-07-11T00:13:51.314Z,3.03
2023-07-11T00:16:20.919Z,3.03
2023-07-11T00:18:49.876Z,2.92
2023-07-11T00:21:17.705Z,2.88
2023-07-11T00:23:45.212Z,3.28
2023-07-11T00:26:12.950Z,3.17
2023-07-11T00:28:40.492Z,3.13
2023-07-11T00:31:08.446Z,3.35
2023-07-11T00:33:37.901Z,3.13
2023-07-11T00:36:07.470Z,2.92
2023-07-11T00:38:35.484Z,3.00
2023-07-11T00:41:05.154Z,3.42
2023-07-11T00:43:32.660Z,3.40
2023-07-11T00:46:11.409Z,3.40
2023-07-11T00:48:50.247Z,3.10
2023-07-11T00:51:26.276Z,3.05
2023-07-11T00:53:55.009Z,3.08
2023-07-11T00:56:28.175Z,2.80
2023-07-11T00:58:59.040Z,2.90
2023-07-11T01:01:28.342Z,3.30
2023-07-11T01:03:57.137Z,3.13
2023-07-11T01:06:29.958Z,3.40
2023-07-11T01:09:01.388Z,3.38
2023-07-11T01:11:32.768Z,3.30
2023-07-11T01:16:29.468Z,3.13
2023-07-11T01:18:57.052Z,3.75
2023-07-11T01:21:24.980Z,3.00
2023-07-11T01:23:54.502Z,3.65
2023-07-11T01:26:22.077Z,3.08
2023-07-11T01:28:49.930Z,3.55
2023-07-11T01:31:17.629Z,3.55
2023-07-11T01:33:46.574Z,4.15
2023-07-11T01:36:14.868Z,3.70
2023-07-11T01:38:43.619Z,3.47
2023-07-11T01:41:11.269Z,3.60
2023-07-11T01:43:38.908Z,3.60
2023-07-11T01:46:07.188Z,3.60
2023-07-11T01:48:35.030Z,3.90
2023-07-11T01:51:03.101Z,4.15
2023-07-11T01:53:30.866Z,4.70
2023-07-11T01:56:04.644Z,4.50
2023-07-11T01:58:34.017Z,4.10
2023-07-11T02:01:01.937Z,3.92
2023-07-11T02:03:30.004Z,4.03
2023-07-11T02:05:57.908Z,3.65
2023-07-11T02:08:26.623Z,4.15
2023-07-11T02:10:54.601Z,3.70
2023-07-11T02:13:22.168Z,3.80
2023-07-11T02:15:50.779Z,3.83
2023-07-11T02:18:20.456Z,3.95
2023-07-11T02:20:48.107Z,3.67
2023-07-11T02:23:17.314Z,3.75
2023-07-11T02:25:45.187Z,3.58
2023-07-11T02:28:12.973Z,3.67
2023-07-11T02:30:42.069Z,3.60
2023-07-11T02:33:09.621Z,3.42
2023-07-11T02:35:37.204Z,4.22
2023-07-11T02:38:04.788Z,4.15
2023-07-11T02:40:32.517Z,3.88
2023-07-11T02:43:00.007Z,4.57
2023-07-11T02:45:27.909Z,4.28
2023-07-11T02:47:55.573Z,3.88
2023-07-11T02:50:23.358Z,3.85
2023-07-11T02:52:51.003Z,3.65
2023-07-11T02:55:19.368Z,3.72
2023-07-11T02:57:47.060Z,3.58
2023-07-11T03:00:15.189Z,3.92
2023-07-11T03:02:43.035Z,4.03
2023-07-11T03:05:11.395Z,4.05
2023-07-11T03:07:39.486Z,4.25
2023-07-11T03:10:07.783Z,4.40
2023-07-11T03:12:35.396Z,4.30
2023-07-11T03:15:04.866Z,4.05
2023-07-11T03:17:33.262Z,4.07
2023-07-11T03:20:01.274Z,4.25
2023-07-11T03:22:29.774Z,4.07
2023-07-11T03:24:57.326Z,3.95
2023-07-11T03:27:25.001Z,4.15
2023-07-11T03:29:52.557Z,3.95
2023-07-11T03:32:21.335Z,3.92
2023-07-11T03:34:54.136Z,4.10
2023-07-11T03:37:27.009Z,3.95
2023-07-11T03:40:01.297Z,4.18
2023-07-11T03:42:28.992Z,3.78
2023-07-11T03:44:57.008Z,4.10
2023-07-11T03:47:25.503Z,4.57
2023-07-11T03:49:59.061Z,4.28
2023-07-11T03:52:27.299Z,4.32
2023-07-11T03:54:59.103Z,4.03
2023-07-11T03:57:26.809Z,4.25
2023-07-11T03:59:54.413Z,4.88
2023-07-11T04:02:22.089Z,4.47
2023-07-11T04:04:49.686Z,5.07
2023-07-11T04:07:17.556Z,4.50
2023-07-11T04:09:45.289Z,4.32
2023-07-11T04:12:13.050Z,4.50
2023-07-11T04:14:40.956Z,4.68
2023-07-11T04:17:08.846Z,4.80
2023-07-11T04:19:36.628Z,4.35
2023-07-11T04:22:04.633Z,4.90
2023-07-11T04:24:32.181Z,4.40
2023-07-11T04:26:59.737Z,4.75
2023-07-11T04:29:27.255Z,4.75
2023-07-11T04:31:55.172Z,5.00
2023-07-11T04:34:22.870Z,5.18
2023-07-11T04:36:50.609Z,5.05
2023-07-11T04:39:19.331Z,4.78
2023-07-11T04:41:46.966Z,4.75
2023-07-11T04:44:15.860Z,4.40
2023-07-11T04:46:43.768Z,4.20
2023-07-11T04:49:11.637Z,4.75
2023-07-11T04:51:39.433Z,4.80
2023-07-11T04:54:07.259Z,5.10
2023-07-11T04:56:41.128Z,4.50
2023-07-11T04:59:09.326Z,4.20
2023-07-11T05:01:37.359Z,4.60
2023-07-11T05:04:05.256Z,4.45
2023-07-11T05:06:32.905Z,4.55
2023-07-11T05:09:01.622Z,4.13
2023-07-11T05:11:29.434Z,4.60
2023-07-11T05:13:57.043Z,4.03
2023-07-11T05:16:29.682Z,3.92
2023-07-11T05:18:58.830Z,4.00
2023-07-11T05:21:28.697Z,4.03
2023-07-11T05:23:56.892Z,4.43
2023-07-11T05:26:24.735Z,4.40
2023-07-11T05:28:52.499Z,4.60
2023-07-11T05:31:20.367Z,3.97
2023-07-11T05:33:48.183Z,3.72
2023-07-11T05:36:26.460Z,4.45
2023-07-11T05:38:56.038Z,4.10
2023-07-11T05:41:24.121Z,4.88
2023-07-11T05:43:51.640Z,4.88
2023-07-11T05:46:19.795Z,4.32
2023-07-11T05:48:47.320Z,4.50
2023-07-11T05:51:16.424Z,4.18
2023-07-11T05:53:50.144Z,4.30
2023-07-11T05:56:24.368Z,4.47
2023-07-11T05:58:54.839Z,4.47
2023-07-11T06:01:27.939Z,4.05
2023-07-11T06:04:16.457Z,4.00
2023-07-11T06:06:44.988Z,4.80
2023-07-11T06:09:22.646Z,4.15
2023-07-11T06:11:57.119Z,4.22
2023-07-11T06:14:30.651Z,3.72
2023-07-11T06:16:58.489Z,3.95
2023-07-11T06:19:28.244Z,3.35
2023-07-11T06:21:56.482Z,3.53
2023-07-11T06:24:23.989Z,3.90
2023-07-11T06:26:51.474Z,3.72
2023-07-11T06:29:19.010Z,3.60
2023-07-11T06:31:46.814Z,2.90
2023-07-11T06:34:14.629Z,2.67
2023-07-11T06:36:42.245Z,3.10
2023-07-11T06:39:11.745Z,2.78
2023-07-11T06:41:39.913Z,2.63
2023-07-11T06:44:09.543Z,2.60
2023-07-11T06:46:37.156Z,2.60
2023-07-11T06:49:05.099Z,2.45
2023-07-11T06:51:32.630Z,2.10
2023-07-11T06:54:00.150Z,2.90
2023-07-11T06:56:27.979Z,2.55
2023-07-11T06:58:55.538Z,2.55
2023-07-11T07:01:36.271Z,2.95
2023-07-11T07:04:06.196Z,2.40
2023-07-11T07:06:34.203Z,2.70
2023-07-11T07:09:01.894Z,2.47
2023-07-11T07:11:29.612Z,2.13
2023-07-11T07:14:05.449Z,2.30
2023-07-11T07:16:39.882Z,2.70
2023-07-11T07:19:10.470Z,2.33
2023-07-11T07:21:38.670Z,2.50
2023-07-11T07:24:08.720Z,2.83
2023-07-11T07:26:36.631Z,2.38
2023-07-11T07:29:04.113Z,2.80
2023-07-11T07:31:31.696Z,2.42
2023-07-11T07:33:59.319Z,2.33
2023-07-11T07:36:26.849Z,2.00
2023-07-11T07:38:54.362Z,2.25
2023-07-11T07:41:22.317Z,2.33
2023-07-11T07:43:49.868Z,2.03
2023-07-11T07:46:20.760Z,2.33
2023-07-11T07:48:48.662Z,2.13
2023-07-11T07:51:20.048Z,2.17
2023-07-11T07:53:48.020Z,1.90
2023-07-11T07:56:20.307Z,2.40
2023-07-11T07:58:49.429Z,2.13
2023-07-11T08:01:20.545Z,2.72
2023-07-11T08:06:18.381Z,1.77
2023-07-11T08:08:47.985Z,2.20
2023-07-11T08:11:19.003Z,2.42
2023-07-11T08:13:59.122Z,2.85
2023-07-11T08:16:33.626Z,2.28
2023-07-11T08:19:07.753Z,2.13
2023-07-11T08:21:38.652Z,1.73
2023-07-11T08:24:08.690Z,2.08
2023-07-11T08:26:36.649Z,2.10
2023-07-11T08:29:13.234Z,1.90
2023-07-11T08:31:52.050Z,1.60
2023-07-11T08:34:20.187Z,1.90
2023-07-11T08:36:48.068Z,1.65
2023-07-11T08:39:15.932Z,1.92
2023-07-11T08:41:56.285Z,1.80
2023-07-11T08:44:40.104Z,2.00
2023-07-11T08:47:32.438Z,2.00
2023-07-11T08:50:24.090Z,1.52
2023-07-11T08:53:14.029Z,2.00
2023-07-11T08:55:50.374Z,1.80
2023-07-11T08:58:32.810Z,1.58
2023-07-11T09:01:05.705Z,1.60
2023-07-11T09:03:47.653Z,1.60
2023-07-11T09:06:31.926Z,1.70
2023-07-11T09:09:00.898Z,1.95
2023-07-11T09:11:52.102Z,1.80
2023-07-11T09:17:31.042Z,1.33
2023-07-11T09:20:43.801Z,1.58
2023-07-11T09:23:39.177Z,1.80
2023-07-11T09:26:29.130Z,2.10
2023-07-11T09:29:07.314Z,1.60
2023-07-11T09:31:44.252Z,1.50
2023-07-11T09:34:27.337Z,1.50
2023-07-11T09:37:01.126Z,1.63
2023-07-11T09:39:48.546Z,1.85
2023-07-11T09:42:30.921Z,1.60
2023-07-11T09:45:10.349Z,1.70
2023-07-11T09:47:40.916Z,2.03
2023-07-11T09:50:41.465Z,1.50
2023-07-11T09:53:24.211Z,1.63
2023-07-11T09:56:11.165Z,1.58
2023-07-11T09:58:41.702Z,1.73
2023-07-11T10:01:31.538Z,1.73
2023-07-11T10:04:01.973Z,1.80
2023-07-11T10:09:15.983Z,1.80
2023-07-11T10:11:56.489Z,1.70
2023-07-11T10:14:34.802Z,1.80
2023-07-11T10:17:24.070Z,1.73
2023-07-11T10:20:12.046Z,1.88
2023-07-11T10:22:52.652Z,1.50
2023-07-11T10:25:29.584Z,1.65
2023-07-11T10:28:31.420Z,1.65
2023-07-11T10:31:20.374Z,2.03
2023-07-11T10:33:59.764Z,2.40
2023-07-11T10:36:38.878Z,1.95
2023-07-11T10:39:17.859Z,2.40
2023-07-11T10:42:05.023Z,2.13
2023-07-11T10:44:45.548Z,2.10
2023-07-11T10:47:13.752Z,2.13
2023-07-11T10:49:46.048Z,2.42
2023-07-11T10:52:24.117Z,2.08
2023-07-11T10:55:20.022Z,2.05
2023-07-11T10:57:54.236Z,2.10
2023-07-11T11:00:33.277Z,2.08
2023-07-11T11:03:35.973Z,2.03
2023-07-11T11:06:30.744Z,2.70
2023-07-11T11:09:22.324Z,2.13
2023-07-11T11:12:15.713Z,1.95
2023-07-11T11:15:13.921Z,1.60
2023-07-11T11:18:25.347Z,2.20
2023-07-11T11:21:20.948Z,1.83
2023-07-11T11:24:32.036Z,1.92
2023-07-11T11:27:28.233Z,2.13
2023-07-11T11:30:13.743Z,1.80
2023-07-11T11:33:19.286Z,2.47
2023-07-11T11:36:32.463Z,2.05
2023-07-11T11:39:34.084Z,2.05
2023-07-11T11:42:09.208Z,2.45
2023-07-11T11:52:44.594Z,2.10
2023-07-11T11:56:14.466Z,1.73
2023-07-11T11:59:00.297Z,1.98
2023-07-11T12:01:57.828Z,1.90
2023-07-11T12:04:28.614Z,1.90
2023-07-11T12:07:02.699Z,1.85
2023-07-11T12:09:49.666Z,1.70
2023-07-11T12:12:23.064Z,2.10
2023-07-11T12:14:53.675Z,1.88
2023-07-11T12:17:30.521Z,1.70
2023-07-11T12:20:01.562Z,2.38
2023-07-11T12:22:38.300Z,2.25
2023-07-11T12:25:25.053Z,2.20
2023-07-11T12:27:55.429Z,2.25
2023-07-11T12:30:32.283Z,2.05
2023-07-11T12:33:34.626Z,2.10
2023-07-11T12:36:08.284Z,2.13
2023-07-11T12:38:48.810Z,1.90
2023-07-11T12:41:54.786Z,2.05
2023-07-11T12:44:22.863Z,2.08
2023-07-11T12:46:53.380Z,2.30
2023-07-11T12:49:30.588Z,2.10
2023-07-11T12:52:13.191Z,2.17
2023-07-11T12:54:44.091Z,1.95
2023-07-11T12:57:24.627Z,2.20
2023-07-11T12:59:52.278Z,1.83
2023-07-11T13:02:30.358Z,2.10
2023-07-11T13:05:00.310Z,2.30
2023-07-11T13:07:33.606Z,2.27
2023-07-11T13:10:03.069Z,2.55
2023-07-11T13:12:37.750Z,2.15
2023-07-11T13:15:23.211Z,2.45
2023-07-11T13:17:55.783Z,2.38
2023-07-11T13:20:34.065Z,2.10
2023-07-11T13:23:02.394Z,2.28
2023-07-11T13:25:35.889Z,2.28
2023-07-11T13:28:15.330Z,2.03
2023-07-11T13:30:42.903Z,1.92
2023-07-11T13:39:04.322Z,1.92
2023-07-11T13:41:38.792Z,1.80
2023-07-11T13:44:36.421Z,1.92
2023-07-11T13:47:22.843Z,1.90
2023-07-11T13:50:10.065Z,2.17
2023-07-11T13:53:12.566Z,1.98
2023-07-11T13:55:51.874Z,1.83
2023-07-11T13:58:21.723Z,1.88
2023-07-11T14:00:54.035Z,2.13
2023-07-11T14:03:25.351Z,1.80
2023-07-11T14:06:02.617Z,2.30
2023-07-11T14:08:30.684Z,2.30
2023-07-11T14:10:58.212Z,2.15
2023-07-11T14:13:28.245Z,2.20
2023-07-11T14:15:59.823Z,2.03
2023-07-11T14:18:27.383Z,2.00
2023-07-11T14:20:55.329Z,1.92
2023-07-11T14:23:27.658Z,2.00
2023-07-11T14:25:56.197Z,2.50
2023-07-11T14:28:24.743Z,2.00
2023-07-11T14:30:59.056Z,1.85
2023-07-11T14:33:34.317Z,2.28
2023-07-11T14:36:02.323Z,1.95
2023-07-11T14:38:29.842Z,2.22
2023-07-11T14:40:57.580Z,1.98
2023-07-11T14:43:27.569Z,2.00
2023-07-11T14:45:55.291Z,1.93
2023-07-11T14:48:30.256Z,2.00
2023-07-11T14:51:05.747Z,1.90
2023-07-11T14:53:40.290Z,2.20
2023-07-11T14:58:58.036Z,2.20
2023-07-11T15:01:25.918Z,2.50
2023-07-11T15:11:34.236Z,2.10
2023-07-11T15:16:33.066Z,2.28
2023-07-11T15:19:00.636Z,1.98
2023-07-11T15:21:28.254Z,1.90
2023-07-11T15:23:55.817Z,1.70
2023-07-11T15:26:26.081Z,1.98
2023-07-11T15:28:54.096Z,1.90
2023-07-11T15:31:22.157Z,2.03
2023-07-11T15:33:51.396Z,1.80
2023-07-11T15:36:18.911Z,2.13
2023-07-11T15:38:46.554Z,1.65
2023-07-11T15:41:18.812Z,2.30
2023-07-11T15:43:50.331Z,1.93
2023-07-11T15:46:34.355Z,1.70
2023-07-11T15:49:18.017Z,1.50
2023-07-11T15:51:46.704Z,1.77
2023-07-11T15:54:23.209Z,1.80
2023-07-11T15:56:51.175Z,1.73
2023-07-11T15:59:23.129Z,1.77
2023-07-11T16:01:52.791Z,2.00
2023-07-11T16:04:32.798Z,1.70
2023-07-11T16:07:03.314Z,1.92
2023-07-11T16:09:31.590Z,2.13
2023-07-11T16:12:01.360Z,2.20
2023-07-11T16:14:28.912Z,2.20
2023-07-11T16:16:56.525Z,1.92
2023-07-11T16:19:31.722Z,2.22
2023-07-11T16:21:59.580Z,2.00
2023-07-11T16:24:27.132Z,2.00
2023-07-11T16:26:56.393Z,2.35
2023-07-11T16:29:30.793Z,2.20
2023-07-11T16:32:00.119Z,1.95
2023-07-11T16:34:28.182Z,2.25
2023-07-11T16:36:57.836Z,1.90
2023-07-11T16:39:32.080Z,2.08
2023-07-11T16:41:59.661Z,1.90
2023-07-11T16:44:29.575Z,1.77
2023-07-11T16:47:00.130Z,2.08
2023-07-11T16:49:28.488Z,1.83
2023-07-11T16:51:56.377Z,2.42
2023-07-11T16:54:25.410Z,2.00
2023-07-11T16:56:52.943Z,2.00
2023-07-11T16:59:28.487Z,1.58
2023-07-11T17:01:58.751Z,2.00
2023-07-11T17:04:26.569Z,2.00
2023-07-11T17:06:55.178Z,1.80
2023-07-11T17:09:25.968Z,2.03
2023-07-11T17:14:21.660Z,1.63
2023-07-11T17:16:57.529Z,1.90
2023-07-11T17:19:36.436Z,1.85
2023-07-11T17:22:15.612Z,1.80
2023-07-11T17:24:44.625Z,1.88
2023-07-11T17:27:25.939Z,1.83
2023-07-11T17:29:54.894Z,2.05
2023-07-11T17:32:26.167Z,1.77
2023-07-11T17:34:53.919Z,1.70
2023-07-11T17:37:21.408Z,1.73
2023-07-11T17:39:49.315Z,1.75
2023-07-11T17:42:17.256Z,2.00
2023-07-11T17:44:47.984Z,1.80
2023-07-11T17:50:10.788Z,2.30
2023-07-11T17:52:38.510Z,1.92
2023-07-11T17:55:09.432Z,2.30
2023-07-11T18:00:21.795Z,2.40
2023-07-11T18:03:01.457Z,2.85
2023-07-11T18:05:30.760Z,3.20
2023-07-11T18:07:59.451Z,2.97
2023-07-11T18:10:31.453Z,3.23
2023-07-11T18:13:10.272Z,3.00
2023-07-11T18:15:45.934Z,3.00
2023-07-11T18:18:34.469Z,2.40
2023-07-11T18:21:02.189Z,2.50
2023-07-11T18:23:30.114Z,3.20
2023-07-11T18:25:59.347Z,3.40
2023-07-11T18:28:27.292Z,2.90
2023-07-11T18:30:55.221Z,3.20
2023-07-11T18:33:23.298Z,3.00
2023-07-11T18:35:51.121Z,3.28
2023-07-11T18:38:28.582Z,3.35
2023-07-11T18:40:56.135Z,3.45
2023-07-11T18:43:24.916Z,3.80
2023-07-11T18:45:52.431Z,3.63
2023-07-11T18:48:19.887Z,3.80
2023-07-11T18:50:47.407Z,3.50
2023-07-11T18:53:16.343Z,2.83
2023-07-11T18:55:47.386Z,3.00
2023-07-11T19:00:49.196Z,3.65
2023-07-11T19:03:18.610Z,3.60
2023-07-11T19:05:47.277Z,3.53
2023-07-11T19:08:20.754Z,2.95
2023-07-11T19:10:51.672Z,3.22
2023-07-11T19:13:19.566Z,3.28
2023-07-11T19:15:52.423Z,3.03
2023-07-11T19:18:26.207Z,2.92
2023-07-11T19:20:54.126Z,2.58
2023-07-11T19:23:28.205Z,2.83
2023-07-11T19:25:59.858Z,2.78
2023-07-11T19:28:31.539Z,3.30
2023-07-11T19:31:08.557Z,3.00
2023-07-11T19:33:39.062Z,2.70
2023-07-11T19:36:18.259Z,2.83
2023-07-11T19:38:51.363Z,2.25
2023-07-11T19:41:21.720Z,2.10
2023-07-11T19:43:51.719Z,2.40
2023-07-11T19:46:35.478Z,2.50
2023-07-11T19:49:03.288Z,2.25
2023-07-11T19:51:31.061Z,2.08
2023-07-11T19:53:58.718Z,2.45
2023-07-11T19:56:31.805Z,2.08
2023-07-11T19:59:02.802Z,2.20
2023-07-11T20:01:31.750Z,1.90
2023-07-11T20:03:59.553Z,1.92
2023-07-11T20:06:27.080Z,1.65
2023-07-11T20:08:54.613Z,1.75
2023-07-11T20:11:22.175Z,2.08
2023-07-11T20:13:50.356Z,1.83
2023-07-11T20:16:24.688Z,2.15
2023-07-11T20:18:54.926Z,2.22
2023-07-11T20:21:24.207Z,1.80
2023-07-11T20:23:52.944Z,2.05
2023-07-11T20:26:24.009Z,2.05
2023-07-11T20:28:57.896Z,2.22
2023-07-11T20:31:27.377Z,2.40
2023-07-11T20:33:55.131Z,2.53
2023-07-11T20:36:29.234Z,2.30
2023-07-11T20:38:59.569Z,2.67
2023-07-11T20:41:29.677Z,2.58
2023-07-11T20:44:02.308Z,2.50
2023-07-11T20:46:30.007Z,1.80
2023-07-11T20:49:00.869Z,1.80
2023-07-11T20:51:28.918Z,1.90
2023-07-11T20:53:56.891Z,1.67
2023-07-11T20:56:24.495Z,1.70
2023-07-11T20:58:57.648Z,2.22
2023-07-11T21:01:43.909Z,1.83
2023-07-11T21:04:11.631Z,2.22
2023-07-11T21:06:42.635Z,1.83
2023-07-11T21:09:19.209Z,2.38
2023-07-11T21:11:51.505Z,2.28
2023-07-11T21:14:19.057Z,2.25
2023-07-11T21:16:46.614Z,2.22
2023-07-11T21:19:36.163Z,2.20
2023-07-11T21:22:12.778Z,2.15
2023-07-11T21:24:40.336Z,1.77
2023-07-11T21:27:12.257Z,2.38
2023-07-11T21:29:41.874Z,1.52
2023-07-11T21:32:18.767Z,1.80
2023-07-11T21:34:46.706Z,1.52
2023-07-11T21:37:15.628Z,1.67
2023-07-11T21:39:43.152Z,1.33
2023-07-11T21:42:13.829Z,1.08
2023-07-11T21:44:41.324Z,1.17
2023-07-11T21:47:09.610Z,0.90
2023-07-11T21:49:48.969Z,0.88
2023-07-11T21:52:24.744Z,1.00
2023-07-11T21:55:08.300Z,0.90
2023-07-11T21:57:35.952Z,0.88
2023-07-11T22:00:16.469Z,1.23
2023-07-11T22:02:44.049Z,0.90
2023-07-11T22:05:13.567Z,1.00
2023-07-11T22:07:41.607Z,1.00
2023-07-11T22:10:30.720Z,0.93
2023-07-11T22:12:59.371Z,0.93
2023-07-11T22:15:28.276Z,1.30
2023-07-11T22:17:59.025Z,1.88
2023-07-11T22:20:38.355Z,1.70
2023-07-11T22:23:08.069Z,1.20
2023-07-11T22:25:37.165Z,1.40
2023-07-11T22:28:14.513Z,1.67
2023-07-11T22:30:45.421Z,1.27
2023-07-11T22:33:16.200Z,1.33
2023-07-11T22:35:45.006Z,1.40
2023-07-11T22:38:15.882Z,1.48
2023-07-11T22:40:49.246Z,1.63
2023-07-11T22:43:25.597Z,1.20
2023-07-11T22:45:58.194Z,1.30
2023-07-11T22:48:29.954Z,1.40
2023-07-11T22:51:00.048Z,1.45
2023-07-11T22:53:33.451Z,1.67
2023-07-11T22:56:06.516Z,1.60
2023-07-11T22:58:38.994Z,1.10
2023-07-11T23:01:12.590Z,1.40
2023-07-11T23:03:43.729Z,1.50
2023-07-11T23:06:21.273Z,1.42
2023-07-11T23:08:49.972Z,1.60
2023-07-11T23:11:18.433Z,1.70
2023-07-11T23:13:47.268Z,1.75
2023-07-11T23:16:30.569Z,1.70
2023-07-11T23:19:03.657Z,1.65
2023-07-11T23:21:33.002Z,1.45
2023-07-11T23:24:01.409Z,1.90
2023-07-11T23:26:30.278Z,2.20
2023-07-11T23:29:00.225Z,1.90
2023-07-11T23:31:27.959Z,2.30
2023-07-11T23:33:55.536Z,2.03
2023-07-11T23:36:27.162Z,2.22
2023-07-11T23:38:57.917Z,2.08
2023-07-11T23:41:25.715Z,2.10
2023-07-11T23:43:53.759Z,1.90
2023-07-11T23:46:28.205Z,1.80
2023-07-11T23:48:57.419Z,1.83
2023-07-11T23:51:31.695Z,1.92
2023-07-11T23:53:59.526Z,2.15
2023-07-11T23:56:31.453Z,1.85
2023-07-11T23:59:01.579Z,2.13
